Preston, Canada
Current Conditions -  °F | °C
As of 8:16 AM on Thursday 27 Nov 2014 (Local Time) from CYKF Reporting Station
Overcast Overcast  
Wind Chill: 28°   Ceiling: 6500
Heat Index: 28°   Visibility: 9mi
Dew Point: 27°   Wind: 2mph
Humidity: 93%   Direction: 190°S
Pressure: 30.03"   Gusts: NA
Location:  43.4°N, 80.35°W
Report Text: CYKF 271316Z AUTO 19002KT 9SM SCT016 OVC065 M02/M03 A3003 RMK SLP183
Loading
Personal Weather Stations






























Interactive Weather Map New forecast layout! Learn more

10-Day Weather Forecast

Advertisements
Track Severe Weather on mobile